Time;durP1;ratioP1;P1;durP2;ratioP2;P2;SDS_P1;SDS_P2;PMS_P1;PMS_P2;Temp;Humidity;BMP_temperature;BMP_pressure;BME280_temperature;BME280_humidity;BME280_pressure;Samples;Min_cycle;Max_cycle;Signal;HPM_P1;HPM_P2
2023/07/23 00:00:06;;;;;;;;;33.00;30.20;;;;;19.35;79.93;99480.38;5070037;28;8939;-83
2023/07/23 00:03:02;;;;;;;;;31.60;31.00;;;;;19.15;80.40;99468.19;5068297;28;8905;-81
2023/07/23 00:05:33;;;;;;;;;32.00;30.20;;;;;19.22;80.46;99479.38;5070037;28;8859;-84
2023/07/23 00:08:02;;;;;;;;;31.20;30.80;;;;;19.33;79.88;99477.78;5063675;28;8864;-82
2023/07/23 00:10:31;;;;;;;;;29.60;28.40;;;;;18.75;80.05;99473.09;5091043;28;8877;-81
2023/07/23 00:12:59;;;;;;;;;26.00;24.80;;;;;18.75;80.28;99475.75;5087640;28;8854;-81
2023/07/23 00:15:28;;;;;;;;;28.20;27.40;;;;;19.18;79.29;99481.34;5066474;28;8870;-81
2023/07/23 00:17:58;;;;;;;;;23.20;23.20;;;;;18.89;78.67;99467.91;5079313;28;8858;-81
2023/07/23 00:20:27;;;;;;;;;25.00;25.00;;;;;19.05;78.15;99472.34;5077199;28;9013;-84
2023/07/23 00:22:57;;;;;;;;;23.40;23.20;;;;;19.20;76.15;99474.13;5070636;28;9650;-85
2023/07/23 00:25:27;;;;;;;;;29.40;25.80;;;;;19.19;76.18;99460.88;5085708;28;8840;-82
2023/07/23 00:27:56;;;;;;;;;23.00;23.00;;;;;19.06;77.00;99463.38;5091163;28;8929;-85
2023/07/23 00:30:25;;;;;;;;;26.00;24.00;;;;;18.85;76.95;99469.00;5033625;28;8843;-83
2023/07/23 00:32:54;;;;;;;;;21.80;21.80;;;;;18.86;78.28;99469.88;5070236;28;8869;-83
2023/07/23 00:35:24;;;;;;;;;23.20;22.80;;;;;18.68;77.79;99474.38;5069414;28;8854;-81
2023/07/23 00:37:53;;;;;;;;;21.60;21.00;;;;;18.71;77.43;99472.41;5014668;28;8956;-81
2023/07/23 00:40:24;;;;;;;;;21.40;20.80;;;;;18.85;77.67;99482.31;5046801;28;8832;-81
2023/07/23 00:42:52;;;;;;;;;22.20;22.20;;;;;19.11;76.57;99475.50;5051912;28;8850;-82
2023/07/23 00:45:24;;;;;;;;;24.00;21.80;;;;;19.11;76.26;99486.16;5066893;28;8855;-83
2023/07/23 00:47:54;;;;;;;;;21.60;21.60;;;;;18.95;76.48;99480.00;5052681;28;9055;-81
2023/07/23 00:50:25;;;;;;;;;24.80;24.00;;;;;18.94;75.91;99468.47;5033186;28;8850;-81
2023/07/23 00:52:54;;;;;;;;;22.40;21.80;;;;;19.16;75.16;99474.38;4993424;28;8932;-83
2023/07/23 00:55:24;;;;;;;;;23.20;22.00;;;;;19.38;74.20;99474.84;5032283;28;8878;-83
2023/07/23 00:57:54;;;;;;;;;23.20;21.60;;;;;18.93;75.90;99479.22;5011099;28;8855;-85
2023/07/23 01:00:23;;;;;;;;;23.00;22.20;;;;;18.77;76.59;99473.03;5012296;28;9971;-83
2023/07/23 01:02:52;;;;;;;;;25.20;23.80;;;;;18.80;76.14;99472.84;5012558;28;8859;-82
2023/07/23 01:05:23;;;;;;;;;24.20;22.20;;;;;18.72;76.47;99476.81;5030858;28;9646;-81
2023/07/23 01:07:52;;;;;;;;;21.60;20.80;;;;;18.34;77.66;99482.41;5027726;28;8932;-84
2023/07/23 01:10:22;;;;;;;;;24.80;24.80;;;;;17.68;80.46;99482.34;4995150;28;8892;-81
2023/07/23 01:12:52;;;;;;;;;25.00;24.20;;;;;17.37;82.85;99482.13;5029314;28;8873;-80
2023/07/23 01:15:22;;;;;;;;;25.00;25.00;;;;;17.35;82.79;99491.97;5036005;28;8857;-81
2023/07/23 01:17:51;;;;;;;;;24.20;22.00;;;;;17.22;83.57;99490.81;5069210;28;8880;-80
2023/07/23 01:20:21;;;;;;;;;24.20;22.20;;;;;17.11;84.87;99488.69;5086181;28;8991;-81
2023/07/23 01:22:51;;;;;;;;;19.80;18.60;;;;;17.10;82.97;99496.75;5069457;28;8849;-80
2023/07/23 01:25:21;;;;;;;;;19.40;19.00;;;;;16.92;81.05;99498.50;5050731;28;8864;-81
2023/07/23 01:27:50;;;;;;;;;17.40;15.60;;;;;16.63;81.41;99498.09;5065779;28;8857;-80
2023/07/23 01:30:19;;;;;;;;;18.40;16.80;;;;;16.54;81.61;99499.38;5066619;28;8853;-81
2023/07/23 01:32:48;;;;;;;;;15.80;15.80;;;;;16.54;80.22;99490.56;5020106;28;8978;-81
2023/07/23 01:35:21;;;;;;;;;13.80;12.40;;;;;16.96;79.13;99494.75;5085680;28;8850;-82
2023/07/23 01:37:52;;;;;;;;;13.20;13.20;;;;;16.90;77.74;99495.06;5070784;28;8876;-81
2023/07/23 01:40:22;;;;;;;;;14.40;13.40;;;;;16.50;78.50;99504.91;5079620;28;8929;-80
2023/07/23 01:42:51;;;;;;;;;14.40;12.80;;;;;16.67;78.76;99504.97;5089181;28;8877;-82
2023/07/23 01:45:20;;;;;;;;;14.60;14.60;;;;;16.86;77.34;99499.66;5054824;28;8847;-81
2023/07/23 01:47:49;;;;;;;;;11.20;11.20;;;;;16.37;77.86;99518.69;5084180;28;8851;-79
2023/07/23 01:50:18;;;;;;;;;14.60;14.60;;;;;16.29;78.67;99512.88;5107979;28;8855;-81
2023/07/23 01:52:47;;;;;;;;;12.20;11.60;;;;;16.44;78.29;99514.00;5091289;28;8882;-81
2023/07/23 01:55:18;;;;;;;;;13.00;13.00;;;;;16.52;78.18;99509.19;5091432;28;8867;-81
2023/07/23 01:57:47;;;;;;;;;14.80;14.80;;;;;16.41;78.71;99509.66;5071796;28;8839;-83
2023/07/23 02:00:18;;;;;;;;;11.60;11.60;;;;;16.49;77.52;99511.13;5033842;28;8864;-83
2023/07/23 02:02:47;;;;;;;;;15.20;13.60;;;;;16.50;76.26;99504.91;5042657;28;9630;-81
2023/07/23 02:05:17;;;;;;;;;12.40;10.80;;;;;16.67;75.46;99499.66;5074346;28;8879;-83
2023/07/23 02:07:46;;;;;;;;;15.40;13.80;;;;;16.94;74.75;99491.31;5074183;28;8868;-81
2023/07/23 02:10:18;;;;;;;;;11.60;10.80;;;;;17.23;72.51;99502.31;5074548;28;8843;-80
2023/07/23 02:12:48;;;;;;;;;11.20;10.60;;;;;16.72;73.84;99505.63;5043458;28;8859;-82
2023/07/23 02:15:18;;;;;;;;;11.60;11.60;;;;;16.72;73.44;99505.63;5070329;28;8850;-82
2023/07/23 02:17:47;;;;;;;;;11.00;10.20;;;;;16.65;75.17;99503.34;5052963;28;8988;-80
2023/07/23 02:20:16;;;;;;;;;13.00;12.80;;;;;16.61;74.19;99498.16;5043822;28;8900;-81
2023/07/23 02:22:45;;;;;;;;;10.80;10.40;;;;;16.66;74.29;99513.84;5048703;28;8845;-81
2023/07/23 02:25:14;;;;;;;;;11.60;11.40;;;;;16.56;74.82;99513.41;5019748;28;8839;-82
2023/07/23 02:27:43;;;;;;;;;11.20;11.20;;;;;16.47;74.49;99511.19;5052206;28;8908;-80
2023/07/23 02:30:13;;;;;;;;;10.40;10.00;;;;;16.27;75.79;99522.69;5051964;28;8844;-81
2023/07/23 02:32:42;;;;;;;;;13.00;13.00;;;;;16.35;76.30;99531.16;5052291;28;9012;-83
2023/07/23 02:35:12;;;;;;;;;13.80;12.00;;;;;16.42;75.86;99516.69;5065197;28;9605;-81
2023/07/23 02:37:41;;;;;;;;;13.80;13.00;;;;;16.52;75.28;99517.16;5015907;28;8865;-81
2023/07/23 02:40:11;;;;;;;;;11.00;10.20;;;;;16.52;74.77;99517.16;5048496;28;8895;-82
2023/07/23 02:42:40;;;;;;;;;12.40;11.60;;;;;16.52;74.96;99518.97;5048739;28;8876;-81
2023/07/23 02:45:11;;;;;;;;;12.00;12.00;;;;;16.77;74.38;99516.84;5031855;28;8871;-82
2023/07/23 02:47:41;;;;;;;;;13.80;13.80;;;;;16.91;73.56;99518.00;5010529;28;8916;-80
2023/07/23 02:50:11;;;;;;;;;10.80;10.40;;;;;17.46;72.23;99511.84;5019657;28;8862;-81
2023/07/23 02:52:39;;;;;;;;;13.20;13.00;;;;;17.80;71.36;99512.75;4975718;28;9560;-81
2023/07/23 02:55:09;;;;;;;;;12.40;12.40;;;;;17.66;69.40;99503.69;5008917;28;9026;-81
2023/07/23 02:57:38;;;;;;;;;14.80;13.80;;;;;17.66;69.34;99513.47;5007135;28;8957;-82
2023/07/23 03:00:08;;;;;;;;;12.20;11.40;;;;;17.53;69.90;99516.78;5032191;28;8942;-83
2023/07/23 03:02:37;;;;;;;;;12.20;12.20;;;;;17.37;70.44;99514.00;5015066;28;8989;-80
2023/07/23 03:05:09;;;;;;;;;11.20;10.80;;;;;17.42;70.02;99513.78;5032075;28;8868;-83
2023/07/23 03:07:39;;;;;;;;;12.80;12.00;;;;;17.29;70.41;99505.56;5041321;28;8859;-80
2023/07/23 03:10:09;;;;;;;;;14.60;13.20;;;;;17.30;70.43;99519.69;5054988;28;8874;-81
2023/07/23 03:12:39;;;;;;;;;14.40;14.40;;;;;17.26;69.88;99523.44;5053173;28;8971;-80
2023/07/23 03:15:09;;;;;;;;;9.80;8.80;;;;;17.34;70.44;99529.22;5072107;28;8828;-80
2023/07/23 03:17:38;;;;;;;;;12.80;12.20;;;;;17.71;69.13;99525.59;5058177;28;8863;-80
2023/07/23 03:20:10;;;;;;;;;14.80;14.00;;;;;17.75;68.99;99526.31;5091581;28;8883;-81
2023/07/23 03:22:40;;;;;;;;;13.40;13.20;;;;;17.91;68.38;99527.25;5106741;28;9670;-81
2023/07/23 03:25:09;;;;;;;;;15.40;13.60;;;;;18.13;68.54;99520.81;5037736;28;8883;-80
2023/07/23 03:27:37;;;;;;;;;14.60;13.60;;;;;18.32;68.24;99528.69;5086172;28;8847;-82
2023/07/23 03:30:08;;;;;;;;;17.80;17.00;;;;;18.53;68.09;99529.31;5096569;27;8871;-82
2023/07/23 03:32:36;;;;;;;;;13.80;13.80;;;;;18.67;67.61;99525.94;5091580;28;8855;-82
2023/07/23 03:35:08;;;;;;;;;14.80;13.40;;;;;18.83;68.64;99532.13;5091830;28;8828;-81
2023/07/23 03:37:37;;;;;;;;;4.80;2.80;;;;;18.86;66.30;99528.47;5058225;28;8952;-83
2023/07/23 03:40:07;;;;;;;;;6.00;5.80;;;;;18.90;66.40;99533.53;5075007;28;8843;-81
2023/07/23 03:42:36;;;;;;;;;14.20;14.20;;;;;19.10;67.47;99521.75;5108089;28;8844;-81
2023/07/23 03:45:07;;;;;;;;;13.00;13.00;;;;;19.24;67.48;99525.44;5108487;28;8895;-80
2023/07/23 03:47:36;;;;;;;;;14.40;13.60;;;;;19.36;66.03;99527.38;5020977;28;9528;-80
2023/07/23 03:50:06;;;;;;;;;12.80;11.20;;;;;19.33;64.90;99530.25;5077125;28;8834;-80
2023/07/23 03:52:36;;;;;;;;;42.40;36.00;;;;;19.30;63.73;99525.94;5083662;28;8873;-80
2023/07/23 03:55:06;;;;;;;;;15.20;15.20;;;;;18.57;65.29;99536.19;5091093;28;8876;-83
2023/07/23 03:57:35;;;;;;;;;14.20;14.20;;;;;18.87;66.00;99538.16;5070912;28;8992;-79
2023/07/23 04:00:08;;;;;;;;;10.80;10.20;;;;;18.97;65.84;99528.72;5053718;28;8935;-80
2023/07/23 04:02:41;;;;;;;;;12.60;12.60;;;;;19.01;65.34;99524.94;5048876;28;8891;-82
2023/07/23 04:05:11;;;;;;;;;13.00;11.60;;;;;18.90;64.54;99528.19;5071919;28;8890;-81
2023/07/23 04:07:41;;;;;;;;;17.00;15.20;;;;;18.70;64.88;99529.25;5107163;28;8883;-81
2023/07/23 04:10:11;;;;;;;;;16.00;14.80;;;;;18.63;65.30;99525.25;5107750;28;8835;-82
2023/07/23 04:12:39;;;;;;;;;12.20;11.40;;;;;18.81;65.19;99534.03;5038203;28;8867;-79
2023/07/23 04:15:09;;;;;;;;;13.00;11.80;;;;;18.91;65.64;99529.94;5087500;28;8853;-82
2023/07/23 04:17:37;;;;;;;;;13.80;13.00;;;;;18.91;65.93;99535.25;5037072;28;8862;-81
2023/07/23 04:20:08;;;;;;;;;13.80;13.80;;;;;19.18;66.00;99534.63;5051648;28;8892;-79
2023/07/23 04:22:37;;;;;;;;;13.40;13.40;;;;;19.39;66.31;99539.69;5030938;28;8856;-82
2023/07/23 04:25:08;;;;;;;;;12.00;11.20;;;;;19.71;67.14;99540.50;5050191;28;8970;-81
2023/07/23 04:27:37;;;;;;;;;11.60;11.60;;;;;19.87;65.20;99538.63;5033197;28;8919;-81
2023/07/23 04:30:07;;;;;;;;;11.20;10.80;;;;;19.76;63.60;99540.22;5067146;28;8844;-81
2023/07/23 04:32:36;;;;;;;;;13.40;11.40;;;;;19.95;64.52;99535.50;5049675;28;8839;-82
2023/07/23 04:35:06;;;;;;;;;13.00;12.80;;;;;20.11;64.76;99530.09;5066449;28;8917;-82
2023/07/23 04:37:35;;;;;;;;;11.60;10.40;;;;;20.27;65.51;99533.59;5084768;28;8863;-82
2023/07/23 04:40:05;;;;;;;;;46.80;39.60;;;;;20.45;64.87;99533.41;5029776;28;8869;-79
2023/07/23 04:42:35;;;;;;;;;14.20;14.20;;;;;20.54;63.88;99542.63;5024640;28;8850;-81
2023/07/23 04:45:05;;;;;;;;;16.40;13.40;;;;;20.55;62.75;99544.34;5066718;28;8854;-82
2023/07/23 04:47:35;;;;;;;;;11.80;11.80;;;;;20.72;63.17;99548.63;5020290;28;8859;-81
2023/07/23 04:50:05;;;;;;;;;11.40;11.40;;;;;20.73;62.88;99550.34;5050122;28;8962;-80
2023/07/23 04:52:37;;;;;;;;;14.00;13.40;;;;;20.85;61.98;99549.56;5028875;28;8966;-82
2023/07/23 04:55:08;;;;;;;;;13.60;13.60;;;;;20.74;63.71;99544.06;5070199;28;9629;-80
2023/07/23 04:57:38;;;;;;;;;12.00;12.00;;;;;20.62;63.95;99537.69;5052971;28;8956;-81
2023/07/23 05:00:08;;;;;;;;;16.00;14.80;;;;;20.59;64.28;99552.06;5044545;28;8851;-81
2023/07/23 05:02:37;;;;;;;;;14.00;12.60;;;;;20.62;63.33;99556.38;5013205;28;9001;-81
2023/07/23 05:05:06;;;;;;;;;13.40;13.40;;;;;20.55;63.31;99563.03;5046283;28;8956;-81
2023/07/23 05:07:35;;;;;;;;;13.20;12.40;;;;;20.40;62.09;99570.19;5046599;28;8884;-80
2023/07/23 05:10:05;;;;;;;;;13.20;13.20;;;;;20.22;62.07;99565.00;5051625;28;8860;-80
2023/07/23 05:12:34;;;;;;;;;10.80;10.80;;;;;20.19;62.51;99573.19;5066436;28;8851;-79
2023/07/23 05:15:15;;;;;;;;;11.80;11.40;;;;;20.45;64.42;99571.63;5068631;28;8893;-79
2023/07/23 05:17:43;;;;;;;;;12.80;12.80;;;;;20.15;62.12;99579.66;5068759;28;8931;-81
2023/07/23 05:20:13;;;;;;;;;10.60;9.20;;;;;19.71;63.39;99586.69;5067018;28;8854;-80
2023/07/23 05:22:41;;;;;;;;;11.60;11.40;;;;;19.91;63.94;99581.97;5074241;28;8956;-80
2023/07/23 05:25:10;;;;;;;;;14.20;14.20;;;;;19.84;63.74;99594.84;5073742;28;8911;-80
2023/07/23 05:27:40;;;;;;;;;20.80;19.80;;;;;20.04;64.03;99598.13;5066763;28;8903;-80
2023/07/23 05:30:09;;;;;;;;;12.60;12.00;;;;;19.40;63.94;99600.03;5067159;28;8842;-80
2023/07/23 05:32:39;;;;;;;;;11.00;11.00;;;;;19.23;65.25;99599.16;5033163;28;9630;-82
2023/07/23 05:35:09;;;;;;;;;17.00;16.40;;;;;19.00;65.46;99597.81;5017237;28;8838;-79
2023/07/23 05:37:37;;;;;;;;;11.80;11.80;;;;;19.35;65.08;99607.44;5008062;28;8946;-80
2023/07/23 05:40:07;;;;;;;;;18.40;16.20;;;;;19.23;65.41;99601.84;5067575;28;8832;-81
2023/07/23 05:42:36;;;;;;;;;12.40;12.40;;;;;19.85;66.92;99606.38;5076015;28;8868;-81
2023/07/23 05:45:06;;;;;;;;;14.80;13.00;;;;;19.67;63.62;99605.66;5039140;28;8847;-81
2023/07/23 05:47:35;;;;;;;;;14.00;14.00;;;;;18.99;66.71;99606.75;5062293;28;8869;-81
2023/07/23 05:50:07;;;;;;;;;14.80;12.60;;;;;19.04;66.54;99607.34;5024567;28;8856;-80
2023/07/23 05:52:36;;;;;;;;;13.40;13.40;;;;;18.90;67.08;99615.25;5032784;28;8950;-82
2023/07/23 05:55:06;;;;;;;;;14.60;12.40;;;;;18.78;67.58;99618.53;5054022;28;8838;-79
2023/07/23 05:57:35;;;;;;;;;15.20;12.20;;;;;18.81;67.19;99615.75;5016189;28;9700;-78
2023/07/23 06:00:05;;;;;;;;;13.40;13.40;;;;;19.11;66.80;99618.53;5062925;28;8865;-78
2023/07/23 06:02:38;;;;;;;;;14.60;14.40;;;;;18.87;67.63;99620.72;4981489;28;8861;-78
2023/07/23 06:05:09;;;;;;;;;15.80;15.80;;;;;19.17;66.66;99612.84;5061159;28;8834;-79
2023/07/23 06:07:38;;;;;;;;;19.20;18.40;;;;;19.58;65.22;99619.50;5049621;28;8850;-80
2023/07/23 06:10:08;;;;;;;;;15.40;15.20;;;;;19.17;66.30;99623.50;5066945;28;8869;-78
2023/07/23 06:12:37;;;;;;;;;15.40;15.40;;;;;19.16;65.46;99613.81;5066151;28;8893;-79
2023/07/23 06:15:09;;;;;;;;;15.00;14.40;;;;;18.72;67.23;99619.72;5038354;28;8859;-79
2023/07/23 06:17:38;;;;;;;;;14.40;14.40;;;;;19.16;66.21;99610.25;5022528;28;8980;-80
2023/07/23 06:20:10;;;;;;;;;12.40;12.40;;;;;19.48;65.42;99604.00;5015438;28;8846;-80
2023/07/23 06:22:38;;;;;;;;;7.80;7.80;;;;;19.72;64.87;99614.22;5082104;28;8869;-80
2023/07/23 06:25:09;;;;;;;;;19.80;15.20;;;;;19.36;65.59;99612.69;5076408;28;8896;-79
2023/07/23 06:27:38;;;;;;;;;15.20;13.80;;;;;19.27;65.78;99610.53;5071674;28;8846;-81
2023/07/23 06:30:08;;;;;;;;;13.00;13.00;;;;;19.30;65.12;99611.22;5072777;28;8854;-80
2023/07/23 06:32:37;;;;;;;;;15.00;15.00;;;;;19.25;65.88;99605.31;5052275;28;8920;-79
2023/07/23 06:35:10;;;;;;;;;17.20;15.80;;;;;19.64;65.52;99597.81;5070319;28;8858;-78
2023/07/23 06:37:41;;;;;;;;;11.40;11.00;;;;;18.96;63.44;99601.59;5071737;28;8908;-80
2023/07/23 06:40:10;;;;;;;;;45.50;38.50;;;;;19.43;64.84;99600.72;5059771;28;8859;-79
2023/07/23 06:42:39;;;;;;;;;12.60;12.00;;;;;19.28;64.94;99607.78;5056914;28;8945;-79
2023/07/23 06:45:10;;;;;;;;;10.40;10.40;;;;;19.70;63.58;99592.09;5054271;28;8936;-79
2023/07/23 06:47:39;;;;;;;;;11.20;11.00;;;;;20.14;62.15;99591.31;5069197;28;8943;-79
2023/07/23 06:50:08;;;;;;;;;38.25;33.50;;;;;20.53;59.69;99592.50;5069668;28;9067;-79
2023/07/23 06:52:37;;;;;;;;;18.80;17.80;;;;;20.92;60.66;99591.00;5051430;28;8862;-78
2023/07/23 06:55:09;;;;;;;;;15.20;14.60;;;;;21.40;61.39;99587.94;5019046;28;8846;-80
2023/07/23 06:57:38;;;;;;;;;12.80;11.20;;;;;21.64;59.94;99581.00;5080394;28;8848;-78
2023/07/23 07:00:08;;;;;;;;;12.00;9.20;;;;;20.99;59.27;99584.31;5088406;28;8847;-78
2023/07/23 07:02:37;;;;;;;;;12.40;10.40;;;;;20.61;60.03;99582.19;5061211;28;8887;-78
2023/07/23 07:05:06;;;;;;;;;16.20;15.20;;;;;20.44;60.97;99587.72;5034769;28;8842;-78
2023/07/23 07:07:37;;;;;;;;;13.00;12.40;;;;;21.10;60.06;99591.63;5051487;28;8889;-79
2023/07/23 07:10:09;;;;;;;;;15.60;14.40;;;;;21.20;59.03;99594.56;5034955;28;8846;-79
2023/07/23 07:12:37;;;;;;;;;29.40;27.40;;;;;21.71;58.90;99597.50;5068078;28;8862;-80
2023/07/23 07:15:07;;;;;;;;;20.60;19.80;;;;;22.06;56.83;99591.59;5076619;28;8843;-78
2023/07/23 07:17:36;;;;;;;;;24.20;22.20;;;;;22.04;55.17;99596.19;5088220;28;9008;-78
2023/07/23 07:20:06;;;;;;;;;4.40;4.40;;;;;22.52;56.69;99596.44;5071653;28;8882;-78
2023/07/23 07:22:35;;;;;;;;;14.20;13.60;;;;;22.74;55.13;99600.31;5005616;28;8851;-78
2023/07/23 07:25:04;;;;;;;;;13.80;13.40;;;;;22.88;52.93;99599.31;5080982;28;9662;-79
2023/07/23 07:27:34;;;;;;;;;15.60;13.80;;;;;22.93;52.40;99606.09;5053816;28;9011;-80
2023/07/23 07:30:04;;;;;;;;;13.00;13.00;;;;;22.16;53.59;99611.41;5061141;28;8860;-77
2023/07/23 07:32:33;;;;;;;;;13.00;13.00;;;;;22.07;54.15;99603.13;5082412;28;8864;-79
2023/07/23 07:35:02;;;;;;;;;14.00;14.00;;;;;21.77;55.24;99613.16;5058356;28;8843;-77
2023/07/23 07:37:31;;;;;;;;;11.00;11.00;;;;;22.35;54.27;99608.38;5074049;28;8836;-77
2023/07/23 07:40:00;;;;;;;;;18.60;18.40;;;;;22.65;54.89;99609.00;5108180;28;9649;-79
2023/07/23 07:42:29;;;;;;;;;36.40;32.00;;;;;23.11;55.67;99608.41;5037416;28;8970;-77
2023/07/23 07:44:59;;;;;;;;;14.60;13.80;;;;;23.13;53.14;99604.66;5070824;28;9637;-77
2023/07/23 07:47:28;;;;;;;;;10.60;9.40;;;;;23.56;53.51;99614.06;5087696;28;8832;-78
2023/07/23 07:49:57;;;;;;;;;15.80;15.40;;;;;22.65;52.27;99604.47;5090057;28;8828;-77
2023/07/23 07:52:26;;;;;;;;;14.00;14.00;;;;;22.33;54.48;99604.06;5070546;28;8874;-76
2023/07/23 07:54:55;;;;;;;;;14.60;14.20;;;;;21.99;55.36;99611.69;5070434;28;8855;-77
2023/07/23 07:57:24;;;;;;;;;12.80;12.40;;;;;21.74;55.90;99613.34;5070315;28;9011;-77
2023/07/23 07:59:54;;;;;;;;;16.60;13.80;;;;;22.33;54.87;99610.25;5067927;28;8846;-79
2023/07/23 08:02:24;;;;;;;;;13.00;13.00;;;;;22.83;55.08;99613.06;5085201;28;8928;-76
2023/07/23 08:04:54;;;;;;;;;14.20;13.60;;;;;23.22;55.23;99604.94;5080637;28;8846;-76
2023/07/23 08:07:26;;;;;;;;;14.00;14.00;;;;;23.58;54.06;99604.97;5089607;28;8851;-81
2023/07/23 08:09:59;;;;;;;;;16.00;15.40;;;;;23.38;52.68;99613.59;5053905;28;8961;-81
2023/07/23 08:12:29;;;;;;;;;12.80;12.60;;;;;23.73;51.44;99611.00;5089908;28;8890;-79
2023/07/23 08:15:00;;;;;;;;;16.00;14.00;;;;;23.29;52.41;99607.06;5078709;28;8854;-78
2023/07/23 08:17:31;;;;;;;;;17.20;15.60;;;;;23.14;52.54;99617.09;5067956;28;8863;-80
2023/07/23 08:20:01;;;;;;;;;54.50;44.50;;;;;23.62;52.90;99619.00;5072524;28;8868;-78
2023/07/23 08:22:32;;;;;;;;;27.80;24.60;;;;;23.86;50.85;99612.75;5089809;28;8860;-79
2023/07/23 08:25:02;;;;;;;;;15.60;14.40;;;;;24.12;49.62;99627.72;5090037;28;8848;-80
2023/07/23 08:27:34;;;;;;;;;14.80;14.00;;;;;24.37;49.67;99623.19;5050709;28;8874;-78
2023/07/23 08:30:05;;;;;;;;;10.40;10.20;;;;;24.61;48.04;99625.78;5050418;28;8893;-79
2023/07/23 08:32:35;;;;;;;;;15.40;15.40;;;;;23.60;49.10;99626.28;5067533;28;8854;-79
2023/07/23 08:35:07;;;;;;;;;14.00;12.80;;;;;23.71;49.18;99623.66;5051189;28;8861;-76
2023/07/23 08:37:36;;;;;;;;;14.20;14.20;;;;;23.18;51.37;99618.56;5082308;28;9021;-77
2023/07/23 08:40:06;;;;;;;;;17.60;16.60;;;;;22.69;52.46;99615.84;5088463;28;8879;-78
2023/07/23 08:42:55;;;;;;;;;14.00;13.20;;;;;22.55;53.65;99623.03;5021279;28;8894;-78
2023/07/23 08:45:47;;;;;;;;;16.60;16.60;;;;;22.26;53.67;99624.19;5049720;28;8838;-78
2023/07/23 08:48:19;;;;;;;;;17.00;16.20;;;;;22.13;53.77;99616.97;5066055;28;8834;-78
2023/07/23 08:50:49;;;;;;;;;13.80;13.20;;;;;22.59;53.27;99621.84;5033083;28;8940;-79
2023/07/23 08:53:19;;;;;;;;;14.60;14.60;;;;;23.14;53.92;99621.59;5068092;28;8873;-78
2023/07/23 08:55:48;;;;;;;;;17.00;14.00;;;;;23.41;52.63;99623.22;5086454;28;9590;-78
2023/07/23 08:58:20;;;;;;;;;15.20;15.00;;;;;23.77;49.54;99638.44;5088637;28;8997;-78
2023/07/23 09:00:49;;;;;;;;;12.60;12.60;;;;;23.93;49.31;99632.81;5087656;28;8840;-77
2023/07/23 09:03:20;;;;;;;;;15.40;14.40;;;;;24.31;50.47;99626.34;5087320;28;8895;-77
2023/07/23 09:05:49;;;;;;;;;16.20;15.20;;;;;24.51;48.60;99633.72;5103998;28;8889;-78
2023/07/23 09:08:18;;;;;;;;;14.40;14.40;;;;;24.22;47.41;99635.13;5083058;28;8838;-80
2023/07/23 09:10:47;;;;;;;;;12.20;11.60;;;;;24.02;46.52;99631.22;5071988;28;8847;-80
2023/07/23 09:13:16;;;;;;;;;15.60;15.60;;;;;23.73;48.38;99628.91;5086946;28;8847;-79
2023/07/23 09:15:54;;;;;;;;;14.40;14.40;;;;;24.50;48.66;99628.47;5088847;28;8832;-77
2023/07/23 09:18:25;;;;;;;;;17.60;17.40;;;;;24.46;47.09;99624.31;5071749;28;8954;-78
2023/07/23 09:20:56;;;;;;;;;15.20;14.40;;;;;23.69;48.55;99624.75;5066959;28;8839;-79
2023/07/23 09:23:26;;;;;;;;;13.80;13.80;;;;;24.22;47.92;99619.00;5066644;28;8854;-77
2023/07/23 09:25:58;;;;;;;;;20.20;18.80;;;;;24.59;47.37;99624.22;5066347;28;9601;-76
2023/07/23 09:28:28;;;;;;;;;27.00;26.60;;;;;24.94;46.86;99618.72;5086735;28;8875;-78
2023/07/23 09:30:58;;;;;;;;;13.40;13.40;;;;;25.21;46.50;99617.47;5087890;28;8864;-80
2023/07/23 09:33:33;;;;;;;;;15.60;15.60;;;;;25.44;45.35;99612.97;5068949;28;8883;-78
2023/07/23 09:36:03;;;;;;;;;15.20;14.20;;;;;25.57;44.29;99615.47;5086720;28;8971;-79
2023/07/23 09:38:34;;;;;;;;;16.20;15.00;;;;;25.74;43.90;99617.63;5071856;28;9615;-79
2023/07/23 09:41:04;;;;;;;;;13.40;13.20;;;;;25.99;43.88;99621.00;5049946;28;8854;-78
2023/07/23 09:43:35;;;;;;;;;9.80;9.80;;;;;25.96;43.53;99616.69;5069437;28;8908;-78
2023/07/23 09:46:04;;;;;;;;;18.00;17.60;;;;;26.14;44.12;99624.22;5047821;28;8943;-80
2023/07/23 09:48:34;;;;;;;;;15.40;15.40;;;;;26.22;44.19;99622.56;5029848;28;8981;-79
2023/07/23 09:51:04;;;;;;;;;15.40;15.40;;;;;26.33;42.55;99637.81;5047657;28;8926;-77
2023/07/23 09:53:32;;;;;;;;;11.20;11.20;;;;;26.45;42.28;99638.59;5047682;28;8857;-77
2023/07/23 09:56:02;;;;;;;;;15.20;15.20;;;;;26.44;41.68;99631.50;5047701;28;9598;-78
2023/07/23 09:58:33;;;;;;;;;15.40;13.20;;;;;26.68;42.67;99631.22;5046137;28;9611;-79
2023/07/23 10:01:03;;;;;;;;;16.60;16.20;;;;;26.77;42.66;99627.72;5072465;28;8863;-79
2023/07/23 10:03:34;;;;;;;;;16.20;15.60;;;;;26.92;41.96;99628.22;5092044;28;8884;-77
2023/07/23 10:06:04;;;;;;;;;15.60;15.60;;;;;27.05;41.56;99626.16;5075642;28;8846;-77
2023/07/23 10:08:35;;;;;;;;;15.40;15.40;;;;;27.17;41.32;99632.31;5069946;28;8878;-80
2023/07/23 10:11:04;;;;;;;;;16.20;15.20;;;;;27.27;41.63;99621.56;5070147;28;8870;-76
2023/07/23 10:13:34;;;;;;;;;15.20;15.20;;;;;27.35;41.06;99624.41;5071649;28;8869;-79
2023/07/23 10:16:05;;;;;;;;;16.40;16.40;;;;;27.39;39.61;99617.75;5056301;28;8862;-77
2023/07/23 10:18:40;;;;;;;;;14.60;14.00;;;;;27.47;40.16;99614.34;5091561;28;8856;-78
2023/07/23 10:21:10;;;;;;;;;14.80;14.80;;;;;27.53;40.80;99605.66;5086731;28;8851;-77
2023/07/23 10:23:41;;;;;;;;;38.25;32.00;;;;;27.36;39.81;99593.72;5071073;28;8892;-78
2023/07/23 10:26:23;;;;;;;;;20.20;19.20;;;;;26.57;40.27;99597.13;5068467;28;8839;-76
2023/07/23 10:28:56;;;;;;;;;17.20;17.20;;;;;26.96;41.11;99591.03;5068874;28;8866;-79
2023/07/23 10:31:26;;;;;;;;;14.60;14.60;;;;;27.18;40.51;99584.63;5068382;28;8862;-80
2023/07/23 10:33:57;;;;;;;;;14.60;14.60;;;;;27.34;41.18;99590.31;5049793;28;8859;-78
2023/07/23 10:36:26;;;;;;;;;16.60;16.60;;;;;27.57;40.06;99590.94;5068053;28;8860;-79
2023/07/23 10:39:20;;;;;;;;;15.00;14.40;;;;;27.75;38.31;99577.59;5068156;28;9015;-80
2023/07/23 10:41:54;;;;;;;;;18.40;16.60;;;;;27.79;38.25;99583.56;5035115;28;8856;-78
2023/07/23 10:44:24;;;;;;;;;16.60;16.60;;;;;27.89;38.43;99578.97;5067903;28;8860;-78
2023/07/23 10:46:53;;;;;;;;;19.80;19.00;;;;;27.59;38.15;99574.59;5067865;28;8863;-79
2023/07/23 10:49:28;;;;;;;;;16.80;15.80;;;;;27.95;38.36;99573.03;5034802;28;8903;-78
2023/07/23 10:52:13;;;;;;;;;14.60;14.60;;;;;28.29;37.62;99575.28;5034562;28;8844;-78
2023/07/23 10:54:42;;;;;;;;;14.00;13.80;;;;;28.16;37.67;99575.59;5068173;28;8868;-76
2023/07/23 10:57:24;;;;;;;;;16.00;15.80;;;;;28.59;36.59;99570.59;5056981;28;8947;-78
2023/07/23 10:59:54;;;;;;;;;16.80;16.80;;;;;28.48;36.66;99579.78;5070762;28;8894;-78
2023/07/23 11:02:26;;;;;;;;;15.60;15.00;;;;;28.80;37.25;99570.41;5016573;28;8901;-77
2023/07/23 11:04:58;;;;;;;;;17.60;16.20;;;;;28.84;36.05;99570.94;5057318;28;8858;-76
2023/07/23 11:07:28;;;;;;;;;23.20;22.20;;;;;28.53;35.90;99569.34;5068830;28;8858;-78
2023/07/23 11:09:57;;;;;;;;;16.00;15.00;;;;;28.96;37.33;99561.66;5069155;28;8906;-78
2023/07/23 11:12:26;;;;;;;;;17.20;16.80;;;;;29.20;35.93;99566.53;5069191;28;8911;-79
2023/07/23 11:14:56;;;;;;;;;16.40;16.40;;;;;29.34;35.38;99574.09;5070042;28;8858;-77
2023/07/23 11:17:25;;;;;;;;;13.80;13.80;;;;;29.58;35.91;99569.94;5070460;28;8861;-78
2023/07/23 11:19:59;;;;;;;;;13.20;13.20;;;;;29.68;36.22;99576.16;5068293;28;8877;-80
2023/07/23 11:22:28;;;;;;;;;19.00;19.00;;;;;29.18;34.44;99568.53;5069632;28;8878;-79
2023/07/23 11:24:56;;;;;;;;;17.00;17.00;;;;;28.63;35.21;99572.03;5070343;28;8970;-78
2023/07/23 11:27:25;;;;;;;;;16.80;16.80;;;;;28.11;36.05;99569.75;5061392;28;8849;-78
2023/07/23 11:29:54;;;;;;;;;14.40;13.80;;;;;28.50;37.04;99568.78;5063253;28;8892;-76
2023/07/23 11:32:26;;;;;;;;;15.60;14.00;;;;;28.87;37.36;99568.81;5034146;28;8866;-77
2023/07/23 11:34:55;;;;;;;;;13.40;13.40;;;;;29.07;36.58;99561.44;5065502;28;8869;-80
2023/07/23 11:37:25;;;;;;;;;14.40;13.40;;;;;29.04;37.20;99564.44;5064999;28;8895;-80
2023/07/23 11:39:55;;;;;;;;;14.80;13.00;;;;;29.26;36.21;99568.63;5069093;28;8866;-79